Terminal Aerodrome Forecast
Issued by NWS

Home | Current Version | Previous Version | Text Only | Print | Product List | Glossary On
Versions: 1 2 3 4 5 6 7 8 9 10 11 12 13 14 15 16 17
000
FTUS41 KPHI 301637 AAB
TAFMIV
TAF AMD
KMIV 301637Z 3017/3112 23005KT P6SM VCSH SCT015 BKN040
      TEMPO 3017/3021 -SHRA SCT015 BKN025
     FM310100 00000KT 3SM BR OVC007=

USA.gov is the U.S. government's official web portal to all federal, state and local government web resources and services.